sensor_id;sensor_type;location;lat;lon;timestamp;temperature;humidity
51793;DHT22;37850;53.178;6.376;2023-11-21T00:00:10;9.60;99.90
51793;DHT22;37850;53.178;6.376;2023-11-21T00:02:38;9.60;99.90
51793;DHT22;37850;53.178;6.376;2023-11-21T00:05:10;9.70;99.90
51793;DHT22;37850;53.178;6.376;2023-11-21T00:07:37;9.70;99.90
51793;DHT22;37850;53.178;6.376;2023-11-21T00:10:03;9.70;99.90
51793;DHT22;37850;53.178;6.376;2023-11-21T00:12:31;9.70;99.90
51793;DHT22;37850;53.178;6.376;2023-11-21T00:14:57;9.70;99.90
51793;DHT22;37850;53.178;6.376;2023-11-21T00:17:23;9.70;99.90
51793;DHT22;37850;53.178;6.376;2023-11-21T00:19:50;9.60;99.90
51793;DHT22;37850;53.178;6.376;2023-11-21T00:22:17;9.70;99.90
51793;DHT22;37850;53.178;6.376;2023-11-21T00:24:43;9.60;99.90
51793;DHT22;37850;53.178;6.376;2023-11-21T00:27:09;9.70;99.90
51793;DHT22;37850;53.178;6.376;2023-11-21T00:29:35;9.60;99.90
51793;DHT22;37850;53.178;6.376;2023-11-21T00:32:01;9.70;99.90
51793;DHT22;37850;53.178;6.376;2023-11-21T00:34:27;9.70;99.90
51793;DHT22;37850;53.178;6.376;2023-11-21T00:36:53;9.60;99.90
51793;DHT22;37850;53.178;6.376;2023-11-21T00:39:19;9.70;99.90
51793;DHT22;37850;53.178;6.376;2023-11-21T00:41:44;9.70;99.90
51793;DHT22;37850;53.178;6.376;2023-11-21T00:44:11;9.30;99.90
51793;DHT22;37850;53.178;6.376;2023-11-21T00:46:36;9.60;99.90
51793;DHT22;37850;53.178;6.376;2023-11-21T00:49:02;9.60;99.90
51793;DHT22;37850;53.178;6.376;2023-11-21T00:51:30;9.70;99.90
51793;DHT22;37850;53.178;6.376;2023-11-21T00:53:55;9.70;99.90
51793;DHT22;37850;53.178;6.376;2023-11-21T00:56:21;9.70;99.90
51793;DHT22;37850;53.178;6.376;2023-11-21T00:58:47;9.90;99.90
51793;DHT22;37850;53.178;6.376;2023-11-21T01:01:16;10.00;99.90
51793;DHT22;37850;53.178;6.376;2023-11-21T01:03:42;9.70;99.90
51793;DHT22;37850;53.178;6.376;2023-11-21T01:06:08;9.70;99.90
51793;DHT22;37850;53.178;6.376;2023-11-21T01:08:34;9.70;99.90
51793;DHT22;37850;53.178;6.376;2023-11-21T01:11:01;9.70;99.90
51793;DHT22;37850;53.178;6.376;2023-11-21T01:13:27;9.70;99.90
51793;DHT22;37850;53.178;6.376;2023-11-21T01:15:54;9.70;99.90
51793;DHT22;37850;53.178;6.376;2023-11-21T01:18:19;9.70;99.90
51793;DHT22;37850;53.178;6.376;2023-11-21T01:20:45;9.70;99.90
51793;DHT22;37850;53.178;6.376;2023-11-21T01:23:13;9.70;99.90
51793;DHT22;37850;53.178;6.376;2023-11-21T01:25:39;9.70;99.90
51793;DHT22;37850;53.178;6.376;2023-11-21T01:28:04;9.70;99.90
51793;DHT22;37850;53.178;6.376;2023-11-21T01:30:30;9.70;99.90
51793;DHT22;37850;53.178;6.376;2023-11-21T01:32:58;9.90;99.90
51793;DHT22;37850;53.178;6.376;2023-11-21T01:35:24;9.70;99.90
51793;DHT22;37850;53.178;6.376;2023-11-21T01:37:49;9.70;99.90
51793;DHT22;37850;53.178;6.376;2023-11-21T01:40:15;9.70;99.90
51793;DHT22;37850;53.178;6.376;2023-11-21T01:42:42;9.70;99.90
51793;DHT22;37850;53.178;6.376;2023-11-21T01:45:09;9.70;99.90
51793;DHT22;37850;53.178;6.376;2023-11-21T01:47:36;9.70;99.90
51793;DHT22;37850;53.178;6.376;2023-11-21T01:50:03;9.70;99.90
51793;DHT22;37850;53.178;6.376;2023-11-21T01:52:30;9.70;99.90
51793;DHT22;37850;53.178;6.376;2023-11-21T01:54:57;9.90;99.90
51793;DHT22;37850;53.178;6.376;2023-11-21T01:57:25;9.80;99.90
51793;DHT22;37850;53.178;6.376;2023-11-21T01:59:54;9.70;99.90
51793;DHT22;37850;53.178;6.376;2023-11-21T02:02:23;10.10;99.90
51793;DHT22;37850;53.178;6.376;2023-11-21T02:04:49;9.70;99.90
51793;DHT22;37850;53.178;6.376;2023-11-21T02:07:15;9.90;99.90
51793;DHT22;37850;53.178;6.376;2023-11-21T02:09:41;9.80;99.90
51793;DHT22;37850;53.178;6.376;2023-11-21T02:12:08;9.80;99.90
51793;DHT22;37850;53.178;6.376;2023-11-21T02:14:36;9.80;99.90
51793;DHT22;37850;53.178;6.376;2023-11-21T02:17:02;9.80;99.90
51793;DHT22;37850;53.178;6.376;2023-11-21T02:19:29;9.80;99.90
51793;DHT22;37850;53.178;6.376;2023-11-21T02:21:57;9.80;99.90
51793;DHT22;37850;53.178;6.376;2023-11-21T02:24:28;9.80;99.90
51793;DHT22;37850;53.178;6.376;2023-11-21T02:26:54;9.80;99.90
51793;DHT22;37850;53.178;6.376;2023-11-21T02:29:21;9.80;99.90
51793;DHT22;37850;53.178;6.376;2023-11-21T02:31:49;9.80;99.90
51793;DHT22;37850;53.178;6.376;2023-11-21T02:34:15;9.80;99.90
51793;DHT22;37850;53.178;6.376;2023-11-21T02:36:42;9.80;99.90
51793;DHT22;37850;53.178;6.376;2023-11-21T02:39:09;9.80;99.90
51793;DHT22;37850;53.178;6.376;2023-11-21T02:41:36;9.80;99.90
51793;DHT22;37850;53.178;6.376;2023-11-21T02:44:02;9.80;99.90
51793;DHT22;37850;53.178;6.376;2023-11-21T02:46:27;9.80;99.90
51793;DHT22;37850;53.178;6.376;2023-11-21T02:48:53;9.80;99.90
51793;DHT22;37850;53.178;6.376;2023-11-21T02:51:20;9.80;99.90
51793;DHT22;37850;53.178;6.376;2023-11-21T02:53:49;10.00;99.90
51793;DHT22;37850;53.178;6.376;2023-11-21T02:56:16;9.80;99.90
51793;DHT22;37850;53.178;6.376;2023-11-21T02:58:44;9.80;99.90
51793;DHT22;37850;53.178;6.376;2023-11-21T03:01:10;9.80;99.90
51793;DHT22;37850;53.178;6.376;2023-11-21T03:03:37;9.80;99.90
51793;DHT22;37850;53.178;6.376;2023-11-21T03:06:06;9.80;99.90
51793;DHT22;37850;53.178;6.376;2023-11-21T03:08:32;9.80;99.90
51793;DHT22;37850;53.178;6.376;2023-11-21T03:10:58;9.80;99.90
51793;DHT22;37850;53.178;6.376;2023-11-21T03:13:23;9.80;99.90
51793;DHT22;37850;53.178;6.376;2023-11-21T03:15:49;9.80;99.90
51793;DHT22;37850;53.178;6.376;2023-11-21T03:18:15;9.80;99.90
51793;DHT22;37850;53.178;6.376;2023-11-21T03:20:42;9.70;99.90
51793;DHT22;37850;53.178;6.376;2023-11-21T03:23:12;9.70;99.90
51793;DHT22;37850;53.178;6.376;2023-11-21T03:25:37;9.70;99.90
51793;DHT22;37850;53.178;6.376;2023-11-21T03:28:03;9.30;99.90
51793;DHT22;37850;53.178;6.376;2023-11-21T03:30:29;9.70;99.90
51793;DHT22;37850;53.178;6.376;2023-11-21T03:32:56;9.70;99.90
51793;DHT22;37850;53.178;6.376;2023-11-21T03:35:22;9.70;99.90
51793;DHT22;37850;53.178;6.376;2023-11-21T03:37:48;9.70;99.90
51793;DHT22;37850;53.178;6.376;2023-11-21T03:40:14;9.70;99.90
51793;DHT22;37850;53.178;6.376;2023-11-21T03:42:40;9.60;99.90
51793;DHT22;37850;53.178;6.376;2023-11-21T03:45:06;9.60;99.90
51793;DHT22;37850;53.178;6.376;2023-11-21T03:47:32;9.60;99.90
51793;DHT22;37850;53.178;6.376;2023-11-21T03:49:58;9.60;99.90
51793;DHT22;37850;53.178;6.376;2023-11-21T03:52:24;10.10;99.90
51793;DHT22;37850;53.178;6.376;2023-11-21T03:54:50;9.60;99.90
51793;DHT22;37850;53.178;6.376;2023-11-21T03:57:16;9.60;99.90
51793;DHT22;37850;53.178;6.376;2023-11-21T03:59:43;9.90;99.90
51793;DHT22;37850;53.178;6.376;2023-11-21T04:02:09;10.00;99.90
51793;DHT22;37850;53.178;6.376;2023-11-21T04:04:35;9.70;99.90
51793;DHT22;37850;53.178;6.376;2023-11-21T04:07:01;9.60;99.90
51793;DHT22;37850;53.178;6.376;2023-11-21T04:09:27;9.60;99.90
51793;DHT22;37850;53.178;6.376;2023-11-21T04:11:53;9.60;99.90
51793;DHT22;37850;53.178;6.376;2023-11-21T04:14:19;9.60;99.90
51793;DHT22;37850;53.178;6.376;2023-11-21T04:16:45;9.60;99.90
51793;DHT22;37850;53.178;6.376;2023-11-21T04:19:11;9.50;99.90
51793;DHT22;37850;53.178;6.376;2023-11-21T04:21:40;9.60;99.90
51793;DHT22;37850;53.178;6.376;2023-11-21T04:24:06;9.60;99.90
51793;DHT22;37850;53.178;6.376;2023-11-21T04:26:33;9.60;99.90
51793;DHT22;37850;53.178;6.376;2023-11-21T04:28:59;9.60;99.90
51793;DHT22;37850;53.178;6.376;2023-11-21T04:31:25;9.60;99.90
51793;DHT22;37850;53.178;6.376;2023-11-21T04:33:51;9.50;99.90
51793;DHT22;37850;53.178;6.376;2023-11-21T04:36:17;9.60;99.90
51793;DHT22;37850;53.178;6.376;2023-11-21T04:38:42;9.60;99.90
51793;DHT22;37850;53.178;6.376;2023-11-21T04:41:08;9.60;99.90
51793;DHT22;37850;53.178;6.376;2023-11-21T04:43:34;9.60;99.90
51793;DHT22;37850;53.178;6.376;2023-11-21T04:45:59;9.60;99.90
51793;DHT22;37850;53.178;6.376;2023-11-21T04:48:27;9.60;99.90
51793;DHT22;37850;53.178;6.376;2023-11-21T04:50:53;9.60;99.90
51793;DHT22;37850;53.178;6.376;2023-11-21T04:53:18;9.60;99.90
51793;DHT22;37850;53.178;6.376;2023-11-21T04:55:45;9.60;99.90
51793;DHT22;37850;53.178;6.376;2023-11-21T04:58:12;9.60;99.90
51793;DHT22;37850;53.178;6.376;2023-11-21T05:00:38;9.60;99.90
51793;DHT22;37850;53.178;6.376;2023-11-21T05:03:04;9.60;99.90
51793;DHT22;37850;53.178;6.376;2023-11-21T05:05:30;9.60;99.90
51793;DHT22;37850;53.178;6.376;2023-11-21T05:07:56;9.70;99.90
51793;DHT22;37850;53.178;6.376;2023-11-21T05:10:22;9.60;99.90
51793;DHT22;37850;53.178;6.376;2023-11-21T05:12:48;9.60;99.90
51793;DHT22;37850;53.178;6.376;2023-11-21T05:15:16;9.60;99.90
51793;DHT22;37850;53.178;6.376;2023-11-21T05:17:46;9.60;99.90
51793;DHT22;37850;53.178;6.376;2023-11-21T05:20:15;9.60;99.90
51793;DHT22;37850;53.178;6.376;2023-11-21T05:22:49;9.60;99.90
51793;DHT22;37850;53.178;6.376;2023-11-21T05:25:15;9.60;99.90
51793;DHT22;37850;53.178;6.376;2023-11-21T05:27:42;9.50;99.90
51793;DHT22;37850;53.178;6.376;2023-11-21T05:30:08;9.50;99.90
51793;DHT22;37850;53.178;6.376;2023-11-21T05:32:37;9.50;99.90
51793;DHT22;37850;53.178;6.376;2023-11-21T05:35:04;9.50;99.90
51793;DHT22;37850;53.178;6.376;2023-11-21T05:37:35;9.50;99.90
51793;DHT22;37850;53.178;6.376;2023-11-21T05:40:01;9.50;99.90
51793;DHT22;37850;53.178;6.376;2023-11-21T05:42:32;9.50;99.90
51793;DHT22;37850;53.178;6.376;2023-11-21T05:44:57;9.50;99.90
51793;DHT22;37850;53.178;6.376;2023-11-21T05:47:39;9.50;99.90
51793;DHT22;37850;53.178;6.376;2023-11-21T05:50:07;9.50;99.90
51793;DHT22;37850;53.178;6.376;2023-11-21T05:52:36;9.50;99.90
51793;DHT22;37850;53.178;6.376;2023-11-21T05:55:03;9.50;99.90
51793;DHT22;37850;53.178;6.376;2023-11-21T05:57:30;9.50;99.90
51793;DHT22;37850;53.178;6.376;2023-11-21T05:59:56;9.40;99.90
51793;DHT22;37850;53.178;6.376;2023-11-21T06:02:21;9.40;99.90
51793;DHT22;37850;53.178;6.376;2023-11-21T06:04:47;9.40;99.90
51793;DHT22;37850;53.178;6.376;2023-11-21T06:07:13;9.40;99.90
51793;DHT22;37850;53.178;6.376;2023-11-21T06:09:38;9.40;99.90
51793;DHT22;37850;53.178;6.376;2023-11-21T06:12:06;9.40;99.90
51793;DHT22;37850;53.178;6.376;2023-11-21T06:14:31;9.40;99.90
51793;DHT22;37850;53.178;6.376;2023-11-21T06:17:00;9.40;99.90
51793;DHT22;37850;53.178;6.376;2023-11-21T06:19:26;9.40;99.90
51793;DHT22;37850;53.178;6.376;2023-11-21T06:21:52;9.40;99.90
51793;DHT22;37850;53.178;6.376;2023-11-21T06:24:17;9.40;99.90
51793;DHT22;37850;53.178;6.376;2023-11-21T06:26:43;9.40;99.90
51793;DHT22;37850;53.178;6.376;2023-11-21T06:29:09;9.40;99.90
51793;DHT22;37850;53.178;6.376;2023-11-21T06:31:36;9.70;99.90
51793;DHT22;37850;53.178;6.376;2023-11-21T06:34:02;9.40;99.90
51793;DHT22;37850;53.178;6.376;2023-11-21T06:36:28;9.40;99.90
51793;DHT22;37850;53.178;6.376;2023-11-21T06:38:54;9.40;99.90
51793;DHT22;37850;53.178;6.376;2023-11-21T06:41:21;9.40;99.90
51793;DHT22;37850;53.178;6.376;2023-11-21T06:43:46;9.40;99.90
51793;DHT22;37850;53.178;6.376;2023-11-21T06:46:13;9.40;99.90
51793;DHT22;37850;53.178;6.376;2023-11-21T06:48:42;9.60;99.90
51793;DHT22;37850;53.178;6.376;2023-11-21T06:51:08;9.40;99.90
51793;DHT22;37850;53.178;6.376;2023-11-21T06:53:34;9.30;99.90
51793;DHT22;37850;53.178;6.376;2023-11-21T06:56:01;9.50;99.90
51793;DHT22;37850;53.178;6.376;2023-11-21T06:58:26;9.30;99.90
51793;DHT22;37850;53.178;6.376;2023-11-21T07:00:52;9.30;99.90
51793;DHT22;37850;53.178;6.376;2023-11-21T07:03:18;9.30;99.90
51793;DHT22;37850;53.178;6.376;2023-11-21T07:05:45;9.30;99.90
51793;DHT22;37850;53.178;6.376;2023-11-21T07:08:11;9.30;99.90
51793;DHT22;37850;53.178;6.376;2023-11-21T07:10:38;9.30;99.90
51793;DHT22;37850;53.178;6.376;2023-11-21T07:13:03;9.30;99.90
51793;DHT22;37850;53.178;6.376;2023-11-21T07:15:29;9.30;99.90
51793;DHT22;37850;53.178;6.376;2023-11-21T07:17:55;9.20;99.90
51793;DHT22;37850;53.178;6.376;2023-11-21T07:20:21;9.20;99.90
51793;DHT22;37850;53.178;6.376;2023-11-21T07:22:47;9.10;99.90
51793;DHT22;37850;53.178;6.376;2023-11-21T07:25:12;9.10;99.90
51793;DHT22;37850;53.178;6.376;2023-11-21T07:27:38;9.10;99.90
51793;DHT22;37850;53.178;6.376;2023-11-21T07:30:04;9.10;99.90
51793;DHT22;37850;53.178;6.376;2023-11-21T07:32:31;9.10;99.90
51793;DHT22;37850;53.178;6.376;2023-11-21T07:34:57;9.60;99.90
51793;DHT22;37850;53.178;6.376;2023-11-21T07:37:25;9.00;99.90
51793;DHT22;37850;53.178;6.376;2023-11-21T07:39:54;9.00;99.90
51793;DHT22;37850;53.178;6.376;2023-11-21T07:42:23;9.00;99.90
51793;DHT22;37850;53.178;6.376;2023-11-21T07:44:52;9.00;99.90
51793;DHT22;37850;53.178;6.376;2023-11-21T07:47:17;9.00;99.90
51793;DHT22;37850;53.178;6.376;2023-11-21T07:49:43;9.00;99.90
51793;DHT22;37850;53.178;6.376;2023-11-21T07:52:09;9.00;99.90
51793;DHT22;37850;53.178;6.376;2023-11-21T07:54:35;9.00;99.90
51793;DHT22;37850;53.178;6.376;2023-11-21T07:57:01;9.00;99.90
51793;DHT22;37850;53.178;6.376;2023-11-21T07:59:29;9.00;99.90
51793;DHT22;37850;53.178;6.376;2023-11-21T08:01:55;9.00;99.90
51793;DHT22;37850;53.178;6.376;2023-11-21T08:04:21;9.00;99.90
51793;DHT22;37850;53.178;6.376;2023-11-21T08:06:46;9.00;99.90
51793;DHT22;37850;53.178;6.376;2023-11-21T08:09:12;8.90;99.90
51793;DHT22;37850;53.178;6.376;2023-11-21T08:11:38;8.90;99.90
51793;DHT22;37850;53.178;6.376;2023-11-21T08:14:04;8.90;99.90
51793;DHT22;37850;53.178;6.376;2023-11-21T08:16:30;8.90;99.90
51793;DHT22;37850;53.178;6.376;2023-11-21T08:18:56;8.90;99.90
51793;DHT22;37850;53.178;6.376;2023-11-21T08:21:22;8.90;99.90
51793;DHT22;37850;53.178;6.376;2023-11-21T08:23:51;8.80;99.90
51793;DHT22;37850;53.178;6.376;2023-11-21T08:26:23;9.00;99.90
51793;DHT22;37850;53.178;6.376;2023-11-21T08:28:49;8.80;99.90
51793;DHT22;37850;53.178;6.376;2023-11-21T08:31:15;8.80;99.90
51793;DHT22;37850;53.178;6.376;2023-11-21T08:33:42;8.80;99.90
51793;DHT22;37850;53.178;6.376;2023-11-21T08:36:09;9.10;99.90
51793;DHT22;37850;53.178;6.376;2023-11-21T08:38:36;8.80;99.90
51793;DHT22;37850;53.178;6.376;2023-11-21T08:41:06;8.70;99.90
51793;DHT22;37850;53.178;6.376;2023-11-21T08:43:37;8.80;99.90
51793;DHT22;37850;53.178;6.376;2023-11-21T08:46:07;8.80;99.90
51793;DHT22;37850;53.178;6.376;2023-11-21T08:48:36;8.70;99.90
51793;DHT22;37850;53.178;6.376;2023-11-21T08:51:03;8.80;99.90
51793;DHT22;37850;53.178;6.376;2023-11-21T08:53:29;8.70;99.90
51793;DHT22;37850;53.178;6.376;2023-11-21T08:55:56;8.70;99.90
51793;DHT22;37850;53.178;6.376;2023-11-21T08:58:22;8.80;99.90
51793;DHT22;37850;53.178;6.376;2023-11-21T09:00:48;8.80;99.90
51793;DHT22;37850;53.178;6.376;2023-11-21T09:03:13;8.80;99.90
51793;DHT22;37850;53.178;6.376;2023-11-21T09:05:39;8.80;99.90
51793;DHT22;37850;53.178;6.376;2023-11-21T09:08:06;8.80;99.90
51793;DHT22;37850;53.178;6.376;2023-11-21T09:10:33;9.00;99.90
51793;DHT22;37850;53.178;6.376;2023-11-21T09:13:01;8.80;99.90
51793;DHT22;37850;53.178;6.376;2023-11-21T09:15:27;8.80;99.90
51793;DHT22;37850;53.178;6.376;2023-11-21T09:17:53;8.70;99.90
51793;DHT22;37850;53.178;6.376;2023-11-21T09:20:19;8.70;99.90
51793;DHT22;37850;53.178;6.376;2023-11-21T09:22:48;8.70;99.90
51793;DHT22;37850;53.178;6.376;2023-11-21T09:25:14;8.90;99.90
51793;DHT22;37850;53.178;6.376;2023-11-21T09:27:40;8.70;99.90
51793;DHT22;37850;53.178;6.376;2023-11-21T09:30:07;9.00;99.90
51793;DHT22;37850;53.178;6.376;2023-11-21T09:32:37;8.70;99.90
51793;DHT22;37850;53.178;6.376;2023-11-21T09:35:06;8.70;99.90
51793;DHT22;37850;53.178;6.376;2023-11-21T09:37:33;8.70;99.90
51793;DHT22;37850;53.178;6.376;2023-11-21T09:39:59;8.70;99.90
51793;DHT22;37850;53.178;6.376;2023-11-21T09:42:40;8.60;99.90
51793;DHT22;37850;53.178;6.376;2023-11-21T09:45:25;8.70;99.90
51793;DHT22;37850;53.178;6.376;2023-11-21T09:47:53;8.70;99.90
51793;DHT22;37850;53.178;6.376;2023-11-21T09:50:21;8.70;99.90
51793;DHT22;37850;53.178;6.376;2023-11-21T09:55:44;8.60;99.90
51793;DHT22;37850;53.178;6.376;2023-11-21T09:58:11;8.60;99.90
51793;DHT22;37850;53.178;6.376;2023-11-21T10:00:47;8.60;99.90
51793;DHT22;37850;53.178;6.376;2023-11-21T10:03:14;8.60;99.90
51793;DHT22;37850;53.178;6.376;2023-11-21T10:05:42;8.50;99.90
51793;DHT22;37850;53.178;6.376;2023-11-21T10:08:09;8.50;99.90
51793;DHT22;37850;53.178;6.376;2023-11-21T10:10:45;8.50;99.90
51793;DHT22;37850;53.178;6.376;2023-11-21T10:13:12;8.50;99.90
51793;DHT22;37850;53.178;6.376;2023-11-21T10:15:41;8.40;99.90
51793;DHT22;37850;53.178;6.376;2023-11-21T10:18:10;8.40;99.90
51793;DHT22;37850;53.178;6.376;2023-11-21T10:20:36;8.40;99.90
51793;DHT22;37850;53.178;6.376;2023-11-21T10:23:04;8.40;99.90
51793;DHT22;37850;53.178;6.376;2023-11-21T10:25:30;8.40;99.90
51793;DHT22;37850;53.178;6.376;2023-11-21T10:28:02;8.30;99.90
51793;DHT22;37850;53.178;6.376;2023-11-21T10:30:39;8.30;99.90
51793;DHT22;37850;53.178;6.376;2023-11-21T10:33:06;8.30;99.90
51793;DHT22;37850;53.178;6.376;2023-11-21T10:35:46;8.30;99.90
51793;DHT22;37850;53.178;6.376;2023-11-21T10:38:13;8.60;99.90
51793;DHT22;37850;53.178;6.376;2023-11-21T10:40:40;8.30;99.90
51793;DHT22;37850;53.178;6.376;2023-11-21T10:43:08;8.30;99.90
51793;DHT22;37850;53.178;6.376;2023-11-21T10:45:44;8.20;99.90
51793;DHT22;37850;53.178;6.376;2023-11-21T10:48:14;8.40;99.90
51793;DHT22;37850;53.178;6.376;2023-11-21T10:50:45;8.40;99.90
51793;DHT22;37850;53.178;6.376;2023-11-21T10:53:11;8.40;99.90
51793;DHT22;37850;53.178;6.376;2023-11-21T10:55:39;8.40;99.90
51793;DHT22;37850;53.178;6.376;2023-11-21T10:58:05;8.30;99.90
51793;DHT22;37850;53.178;6.376;2023-11-21T11:00:33;8.30;99.90
51793;DHT22;37850;53.178;6.376;2023-11-21T11:02:59;8.30;99.90
51793;DHT22;37850;53.178;6.376;2023-11-21T11:05:29;8.30;99.90
51793;DHT22;37850;53.178;6.376;2023-11-21T11:08:00;8.30;99.90
51793;DHT22;37850;53.178;6.376;2023-11-21T11:10:28;8.20;99.90
51793;DHT22;37850;53.178;6.376;2023-11-21T11:12:56;8.20;99.90
51793;DHT22;37850;53.178;6.376;2023-11-21T11:15:23;8.30;99.90
51793;DHT22;37850;53.178;6.376;2023-11-21T11:17:49;8.20;99.90
51793;DHT22;37850;53.178;6.376;2023-11-21T11:20:17;8.20;99.90
51793;DHT22;37850;53.178;6.376;2023-11-21T11:28:33;8.20;99.90
51793;DHT22;37850;53.178;6.376;2023-11-21T11:34:08;8.20;99.90
51793;DHT22;37850;53.178;6.376;2023-11-21T11:36:47;8.20;99.90
51793;DHT22;37850;53.178;6.376;2023-11-21T11:39:30;8.20;99.90
51793;DHT22;37850;53.178;6.376;2023-11-21T11:41:58;8.20;99.90
51793;DHT22;37850;53.178;6.376;2023-11-21T11:47:32;8.20;99.90
51793;DHT22;37850;53.178;6.376;2023-11-21T11:52:38;8.20;99.90
51793;DHT22;37850;53.178;6.376;2023-11-21T11:55:13;8.20;99.90
51793;DHT22;37850;53.178;6.376;2023-11-21T11:57:40;8.30;99.90
51793;DHT22;37850;53.178;6.376;2023-11-21T12:00:20;8.30;99.90
51793;DHT22;37850;53.178;6.376;2023-11-21T12:02:54;8.30;99.90
51793;DHT22;37850;53.178;6.376;2023-11-21T12:05:21;8.30;99.90
51793;DHT22;37850;53.178;6.376;2023-11-21T12:07:53;8.30;99.90
51793;DHT22;37850;53.178;6.376;2023-11-21T12:10:27;8.30;99.90
51793;DHT22;37850;53.178;6.376;2023-11-21T12:12:58;8.30;99.90
51793;DHT22;37850;53.178;6.376;2023-11-21T12:15:24;8.30;99.90
51793;DHT22;37850;53.178;6.376;2023-11-21T12:17:51;8.30;99.90
51793;DHT22;37850;53.178;6.376;2023-11-21T12:20:23;8.30;99.90
51793;DHT22;37850;53.178;6.376;2023-11-21T12:22:51;8.30;99.90
51793;DHT22;37850;53.178;6.376;2023-11-21T12:25:22;8.40;99.90
51793;DHT22;37850;53.178;6.376;2023-11-21T12:27:50;8.50;99.90
51793;DHT22;37850;53.178;6.376;2023-11-21T12:30:24;8.40;99.90
51793;DHT22;37850;53.178;6.376;2023-11-21T12:32:52;8.40;99.90
51793;DHT22;37850;53.178;6.376;2023-11-21T12:35:20;8.40;99.90
51793;DHT22;37850;53.178;6.376;2023-11-21T12:37:49;8.40;99.90
51793;DHT22;37850;53.178;6.376;2023-11-21T12:40:16;8.40;99.90
51793;DHT22;37850;53.178;6.376;2023-11-21T12:42:47;8.40;99.90
51793;DHT22;37850;53.178;6.376;2023-11-21T12:45:22;8.40;99.90
51793;DHT22;37850;53.178;6.376;2023-11-21T12:47:49;8.40;99.90
51793;DHT22;37850;53.178;6.376;2023-11-21T12:50:28;8.40;99.90
51793;DHT22;37850;53.178;6.376;2023-11-21T12:53:09;8.40;99.90
51793;DHT22;37850;53.178;6.376;2023-11-21T12:55:36;8.40;99.90
51793;DHT22;37850;53.178;6.376;2023-11-21T12:58:06;8.40;99.90
51793;DHT22;37850;53.178;6.376;2023-11-21T13:00:40;8.40;99.90
51793;DHT22;37850;53.178;6.376;2023-11-21T13:03:09;8.40;99.90
51793;DHT22;37850;53.178;6.376;2023-11-21T13:05:38;8.40;99.90
51793;DHT22;37850;53.178;6.376;2023-11-21T13:08:07;8.40;99.90
51793;DHT22;37850;53.178;6.376;2023-11-21T13:10:35;8.40;99.90
51793;DHT22;37850;53.178;6.376;2023-11-21T13:13:07;8.40;99.90
51793;DHT22;37850;53.178;6.376;2023-11-21T13:15:35;8.50;99.90
51793;DHT22;37850;53.178;6.376;2023-11-21T13:18:04;8.50;99.90
51793;DHT22;37850;53.178;6.376;2023-11-21T13:20:29;8.50;99.90
51793;DHT22;37850;53.178;6.376;2023-11-21T13:22:57;8.50;99.90
51793;DHT22;37850;53.178;6.376;2023-11-21T13:25:28;8.60;99.90
51793;DHT22;37850;53.178;6.376;2023-11-21T13:27:58;8.50;99.90
51793;DHT22;37850;53.178;6.376;2023-11-21T13:30:27;8.80;99.90
51793;DHT22;37850;53.178;6.376;2023-11-21T13:33:00;8.50;99.90
51793;DHT22;37850;53.178;6.376;2023-11-21T13:35:32;8.70;99.90
51793;DHT22;37850;53.178;6.376;2023-11-21T13:38:09;8.40;99.90
51793;DHT22;37850;53.178;6.376;2023-11-21T13:40:36;8.80;99.90
51793;DHT22;37850;53.178;6.376;2023-11-21T13:43:12;8.50;99.90
51793;DHT22;37850;53.178;6.376;2023-11-21T13:45:39;8.50;99.90
51793;DHT22;37850;53.178;6.376;2023-11-21T13:48:06;8.40;99.90
51793;DHT22;37850;53.178;6.376;2023-11-21T13:50:41;8.50;99.90
51793;DHT22;37850;53.178;6.376;2023-11-21T13:53:21;8.40;99.90
51793;DHT22;37850;53.178;6.376;2023-11-21T13:55:51;8.40;99.90
51793;DHT22;37850;53.178;6.376;2023-11-21T13:58:20;8.50;99.90
51793;DHT22;37850;53.178;6.376;2023-11-21T14:00:58;8.40;99.90
51793;DHT22;37850;53.178;6.376;2023-11-21T14:03:24;8.90;99.90
51793;DHT22;37850;53.178;6.376;2023-11-21T14:05:58;8.40;99.90
51793;DHT22;37850;53.178;6.376;2023-11-21T14:08:26;8.40;99.90
51793;DHT22;37850;53.178;6.376;2023-11-21T14:10:54;8.40;99.90
51793;DHT22;37850;53.178;6.376;2023-11-21T14:13:25;8.40;99.90
51793;DHT22;37850;53.178;6.376;2023-11-21T14:15:51;8.40;99.90
51793;DHT22;37850;53.178;6.376;2023-11-21T14:18:26;8.30;99.90
51793;DHT22;37850;53.178;6.376;2023-11-21T14:21:16;8.30;99.90
51793;DHT22;37850;53.178;6.376;2023-11-21T14:23:42;8.30;99.90
51793;DHT22;37850;53.178;6.376;2023-11-21T14:26:08;8.30;99.90
51793;DHT22;37850;53.178;6.376;2023-11-21T14:28:34;8.30;99.90
51793;DHT22;37850;53.178;6.376;2023-11-21T14:31:02;8.30;99.90
51793;DHT22;37850;53.178;6.376;2023-11-21T14:33:28;8.30;99.90
51793;DHT22;37850;53.178;6.376;2023-11-21T14:35:54;8.30;99.90
51793;DHT22;37850;53.178;6.376;2023-11-21T14:38:20;8.30;99.90
51793;DHT22;37850;53.178;6.376;2023-11-21T14:40:46;8.30;99.90
51793;DHT22;37850;53.178;6.376;2023-11-21T14:43:13;8.30;99.90
51793;DHT22;37850;53.178;6.376;2023-11-21T14:45:39;8.30;99.90
51793;DHT22;37850;53.178;6.376;2023-11-21T14:48:04;8.20;99.90
51793;DHT22;37850;53.178;6.376;2023-11-21T14:50:30;8.20;99.90
51793;DHT22;37850;53.178;6.376;2023-11-21T14:53:01;8.20;99.90
51793;DHT22;37850;53.178;6.376;2023-11-21T14:55:32;8.70;99.90
51793;DHT22;37850;53.178;6.376;2023-11-21T14:58:05;8.20;99.90
51793;DHT22;37850;53.178;6.376;2023-11-21T15:00:31;8.30;99.90
51793;DHT22;37850;53.178;6.376;2023-11-21T15:03:17;8.20;99.90
51793;DHT22;37850;53.178;6.376;2023-11-21T15:05:58;8.10;99.90
51793;DHT22;37850;53.178;6.376;2023-11-21T15:08:25;8.10;99.90
51793;DHT22;37850;53.178;6.376;2023-11-21T15:10:57;8.70;99.90
51793;DHT22;37850;53.178;6.376;2023-11-21T15:13:24;8.10;99.90
51793;DHT22;37850;53.178;6.376;2023-11-21T15:15:53;8.10;99.90
51793;DHT22;37850;53.178;6.376;2023-11-21T15:18:21;8.10;99.90
51793;DHT22;37850;53.178;6.376;2023-11-21T15:20:47;8.20;99.90
51793;DHT22;37850;53.178;6.376;2023-11-21T15:23:13;8.00;99.90
51793;DHT22;37850;53.178;6.376;2023-11-21T15:25:39;8.00;99.90
51793;DHT22;37850;53.178;6.376;2023-11-21T15:28:04;8.00;99.90
51793;DHT22;37850;53.178;6.376;2023-11-21T15:30:31;8.00;99.90
51793;DHT22;37850;53.178;6.376;2023-11-21T15:33:00;8.00;99.90
51793;DHT22;37850;53.178;6.376;2023-11-21T15:35:26;8.00;99.90
51793;DHT22;37850;53.178;6.376;2023-11-21T15:37:55;8.00;99.90
51793;DHT22;37850;53.178;6.376;2023-11-21T15:40:24;8.00;99.90
51793;DHT22;37850;53.178;6.376;2023-11-21T15:42:50;8.00;99.90
51793;DHT22;37850;53.178;6.376;2023-11-21T15:45:16;8.00;99.90
51793;DHT22;37850;53.178;6.376;2023-11-21T15:47:46;8.00;99.90
51793;DHT22;37850;53.178;6.376;2023-11-21T15:50:12;8.10;99.90
51793;DHT22;37850;53.178;6.376;2023-11-21T15:52:39;8.00;99.90
51793;DHT22;37850;53.178;6.376;2023-11-21T15:55:05;7.90;99.90
51793;DHT22;37850;53.178;6.376;2023-11-21T15:57:32;7.90;99.90
51793;DHT22;37850;53.178;6.376;2023-11-21T15:59:57;7.90;99.90
51793;DHT22;37850;53.178;6.376;2023-11-21T16:02:23;7.80;99.90
51793;DHT22;37850;53.178;6.376;2023-11-21T16:04:49;7.80;99.90